< < Back
Terminal Aerodrome Forecast


Current Version              Previous Versions:   1  2  3  4  5  6  7  8  9  

Terminal Aerodrome Forecast

056
FTUS42 KFFC 162300
TAFMCN
TAF
KMCN 162328Z 1700/1724 32005KT P6SM SCT250
     FM170700 33003KT 4SM BR FEW250
     FM171500 33005KT P6SM FEW040 FEW250=



Latest METAR

872
SAUS80 KWBC 172300 RRB
MTRMCN
METAR KMCN 172253Z 31005KT 10SM CLR 29/18 A2986 RMK AO2 SLP107 T02940183
$


USA.gov is the U.S. government's official web portal to all federal, state and local government web resources and services.